createdAt,value
2023-04-22T00:02:13.268Z,9.54
2023-04-22T00:04:41.856Z,9.54
2023-04-22T00:07:08.894Z,9.51
2023-04-22T00:09:36.162Z,9.50
2023-04-22T00:12:03.084Z,9.50
2023-04-22T00:14:29.705Z,9.48
2023-04-22T00:16:56.648Z,9.46
2023-04-22T00:19:23.473Z,9.46
2023-04-22T00:21:50.626Z,9.46
2023-04-22T00:24:17.204Z,9.48
2023-04-22T00:26:43.844Z,9.47
2023-04-22T00:29:10.479Z,9.46
2023-04-22T00:31:37.104Z,9.45
2023-04-22T00:34:03.712Z,9.45
2023-04-22T00:36:31.419Z,9.46
2023-04-22T00:38:58.170Z,9.48
2023-04-22T00:41:25.097Z,9.47
2023-04-22T00:43:52.539Z,9.47
2023-04-22T00:46:21.004Z,9.45
2023-04-22T00:48:48.457Z,9.44
2023-04-22T00:51:15.030Z,9.44
2023-04-22T00:53:41.671Z,9.41
2023-04-22T00:56:08.359Z,9.38
2023-04-22T00:58:35.168Z,9.36
2023-04-22T01:01:02.216Z,9.36
2023-04-22T01:03:30.795Z,9.35
2023-04-22T01:05:58.499Z,9.31
2023-04-22T01:08:28.781Z,9.26
2023-04-22T01:10:57.045Z,9.23
2023-04-22T01:13:24.209Z,9.19
2023-04-22T01:15:52.987Z,9.18
2023-04-22T01:18:20.010Z,9.17
2023-04-22T01:20:46.703Z,9.13
2023-04-22T01:23:22.402Z,9.09
2023-04-22T01:25:49.458Z,9.08
2023-04-22T01:28:17.050Z,9.09
2023-04-22T01:30:44.001Z,9.07
2023-04-22T01:33:11.778Z,9.06
2023-04-22T01:35:39.095Z,9.06
2023-04-22T01:38:08.920Z,9.05
2023-04-22T01:40:35.584Z,9.04
2023-04-22T01:43:02.887Z,9.06
2023-04-22T01:45:29.945Z,9.06
2023-04-22T01:47:56.552Z,9.05
2023-04-22T01:50:23.884Z,9.05
2023-04-22T01:52:50.747Z,9.05
2023-04-22T01:55:17.458Z,9.05
2023-04-22T01:57:44.231Z,9.05
2023-04-22T02:00:11.694Z,9.06
2023-04-22T02:02:38.394Z,9.03
2023-04-22T02:05:07.405Z,9.03
2023-04-22T02:07:34.503Z,9.00
2023-04-22T02:10:02.147Z,9.00
2023-04-22T02:12:28.921Z,9.01
2023-04-22T02:14:55.647Z,8.99
2023-04-22T02:17:22.381Z,8.99
2023-04-22T02:19:48.965Z,8.99
2023-04-22T02:22:15.883Z,8.96
2023-04-22T02:24:43.150Z,8.94
2023-04-22T02:27:09.836Z,8.91
2023-04-22T02:29:36.420Z,8.90
2023-04-22T02:32:03.001Z,8.87
2023-04-22T02:34:29.515Z,8.84
2023-04-22T02:36:56.359Z,8.80
2023-04-22T02:39:22.911Z,8.74
2023-04-22T02:41:49.455Z,8.71
2023-04-22T02:44:15.983Z,8.70
2023-04-22T02:46:42.596Z,8.68
2023-04-22T02:49:09.173Z,8.64
2023-04-22T02:51:38.571Z,8.64
2023-04-22T02:54:05.337Z,8.63
2023-04-22T02:56:31.887Z,8.65
2023-04-22T02:58:58.442Z,8.65
2023-04-22T03:01:25.062Z,8.66
2023-04-22T03:03:51.887Z,8.69
2023-04-22T03:06:18.871Z,8.70
2023-04-22T03:08:45.500Z,8.71
2023-04-22T03:11:13.886Z,8.72
2023-04-22T03:13:40.689Z,8.74
2023-04-22T03:16:07.572Z,8.76
2023-04-22T03:18:34.280Z,8.75
2023-04-22T03:21:01.016Z,8.76
2023-04-22T03:23:27.559Z,8.74
2023-04-22T03:25:54.090Z,8.76
2023-04-22T03:28:20.704Z,8.77
2023-04-22T03:30:48.496Z,8.78
2023-04-22T03:33:15.170Z,8.78
2023-04-22T03:35:41.807Z,8.77
2023-04-22T03:38:08.509Z,8.77
2023-04-22T03:40:35.090Z,8.79
2023-04-22T03:43:01.642Z,8.78
2023-04-22T03:45:28.765Z,8.79
2023-04-22T03:47:55.691Z,8.80
2023-04-22T03:50:22.312Z,8.79
2023-04-22T03:52:48.895Z,8.80
2023-04-22T03:55:15.584Z,8.79
2023-04-22T03:57:42.149Z,8.79
2023-04-22T04:00:09.391Z,8.79
2023-04-22T04:02:36.048Z,8.79
2023-04-22T04:05:02.959Z,8.79
2023-04-22T04:07:29.878Z,8.78
2023-04-22T04:09:56.481Z,8.78
2023-04-22T04:12:22.983Z,8.80
2023-04-22T04:14:49.592Z,8.79
2023-04-22T04:17:16.664Z,8.78
2023-04-22T04:19:43.361Z,8.77
2023-04-22T04:22:10.690Z,8.74
2023-04-22T04:24:37.292Z,8.72
2023-04-22T04:27:04.027Z,8.73
2023-04-22T04:29:30.547Z,8.73
2023-04-22T04:31:57.093Z,8.72
2023-04-22T04:34:23.665Z,8.71
2023-04-22T04:36:50.683Z,8.70
2023-04-22T04:39:17.539Z,8.69
2023-04-22T04:41:45.135Z,8.68
2023-04-22T04:44:12.233Z,8.69
2023-04-22T04:46:38.966Z,8.68
2023-04-22T04:49:05.559Z,8.68
2023-04-22T04:51:33.299Z,8.68
2023-04-22T04:53:59.833Z,8.69
2023-04-22T04:56:26.416Z,8.69
2023-04-22T04:58:52.995Z,8.68
2023-04-22T05:01:19.830Z,8.67
2023-04-22T05:03:46.613Z,8.64
2023-04-22T05:06:13.443Z,8.61
2023-04-22T05:08:40.100Z,8.57
2023-04-22T05:11:06.795Z,8.53
2023-04-22T05:13:33.423Z,8.45
2023-04-22T05:16:00.207Z,8.40
2023-04-22T05:18:26.906Z,8.32
2023-04-22T05:20:53.570Z,8.28
2023-04-22T05:23:20.204Z,8.25
2023-04-22T05:25:46.806Z,8.20
2023-04-22T05:28:13.408Z,8.16
2023-04-22T05:30:39.917Z,8.13
2023-04-22T05:33:08.564Z,8.10
2023-04-22T05:35:35.659Z,8.08
2023-04-22T05:38:03.088Z,8.06
2023-04-22T05:40:29.685Z,8.05
2023-04-22T05:42:57.225Z,8.05
2023-04-22T05:45:23.784Z,8.05
2023-04-22T05:47:50.410Z,8.06
2023-04-22T05:50:17.021Z,8.09
2023-04-22T05:52:43.606Z,8.11
2023-04-22T05:55:10.221Z,8.15
2023-04-22T05:57:36.824Z,8.17
2023-04-22T06:00:04.886Z,8.20
2023-04-22T06:02:31.680Z,8.22
2023-04-22T06:04:58.771Z,8.26
2023-04-22T06:07:25.682Z,8.31
2023-04-22T06:10:02.196Z,8.34
2023-04-22T06:12:30.691Z,8.41
2023-04-22T06:14:57.227Z,8.43
2023-04-22T06:17:23.859Z,8.48
2023-04-22T06:19:50.472Z,8.52
2023-04-22T06:22:17.010Z,8.57
2023-04-22T06:24:43.911Z,8.61
2023-04-22T06:27:11.330Z,8.65
2023-04-22T06:29:38.118Z,8.70
2023-04-22T06:32:04.848Z,8.80
2023-04-22T06:34:31.426Z,8.89
2023-04-22T06:36:58.052Z,8.99
2023-04-22T06:39:24.620Z,9.09
2023-04-22T06:41:51.186Z,9.30
2023-04-22T06:44:17.748Z,9.72
2023-04-22T06:46:44.316Z,10.12
2023-04-22T06:49:10.910Z,10.40
2023-04-22T06:51:37.681Z,10.54
2023-04-22T06:54:04.342Z,10.78
2023-04-22T06:56:31.055Z,11.12
2023-04-22T06:58:57.586Z,11.45
2023-04-22T07:01:24.460Z,11.77
2023-04-22T07:03:51.211Z,12.14
2023-04-22T07:06:17.948Z,12.45
2023-04-22T07:08:44.651Z,12.68
2023-04-22T07:11:13.193Z,12.80
2023-04-22T07:13:41.398Z,12.84
2023-04-22T07:16:08.106Z,13.03
2023-04-22T07:18:35.962Z,12.97
2023-04-22T07:21:02.647Z,12.81
2023-04-22T07:23:29.297Z,12.59
2023-04-22T07:25:55.841Z,12.34
2023-04-22T07:28:22.379Z,12.11
2023-04-22T07:30:48.958Z,11.93
2023-04-22T07:33:15.503Z,11.71
2023-04-22T07:35:42.230Z,11.55
2023-04-22T07:38:09.849Z,11.42
2023-04-22T07:40:37.224Z,11.28
2023-04-22T07:43:05.725Z,11.21
2023-04-22T07:45:33.253Z,11.19
2023-04-22T07:47:59.990Z,11.22
2023-04-22T07:50:26.690Z,11.24
2023-04-22T07:52:53.262Z,11.29
2023-04-22T07:55:19.805Z,11.47
2023-04-22T07:57:46.400Z,11.85
2023-04-22T08:00:14.602Z,12.00
2023-04-22T08:02:41.492Z,12.07
2023-04-22T08:05:08.407Z,12.11
2023-04-22T08:07:35.037Z,12.08
2023-04-22T08:10:01.633Z,12.12
2023-04-22T08:12:29.219Z,12.30
2023-04-22T08:14:55.877Z,12.99
2023-04-22T08:17:22.964Z,13.88
2023-04-22T08:19:50.196Z,14.59
2023-04-22T08:22:18.619Z,14.99
2023-04-22T08:24:45.174Z,14.92
2023-04-22T08:27:11.819Z,14.73
2023-04-22T08:29:38.886Z,14.77
2023-04-22T08:32:05.821Z,15.20
2023-04-22T08:34:32.518Z,15.57
2023-04-22T08:36:59.292Z,16.00
2023-04-22T08:39:25.923Z,16.32
2023-04-22T08:41:53.376Z,16.45
2023-04-22T08:44:21.898Z,16.44
2023-04-22T08:46:49.175Z,16.76
2023-04-22T08:49:16.360Z,16.80
2023-04-22T08:51:44.161Z,17.01
2023-04-22T08:54:11.429Z,16.84
2023-04-22T08:56:43.447Z,16.85
2023-04-22T08:59:11.587Z,17.19
2023-04-22T09:01:41.361Z,17.13
2023-04-22T09:04:09.673Z,17.12
2023-04-22T09:06:37.907Z,17.26
2023-04-22T09:09:04.606Z,17.37
2023-04-22T09:11:32.559Z,17.60
2023-04-22T09:13:59.182Z,17.58
2023-04-22T09:16:25.820Z,17.30
2023-04-22T09:18:52.393Z,17.16
2023-04-22T09:21:19.059Z,17.36
2023-04-22T09:26:24.464Z,18.04
2023-04-22T09:28:54.854Z,18.20
2023-04-22T09:31:22.805Z,18.47
2023-04-22T09:33:52.944Z,18.66
2023-04-22T09:36:26.164Z,18.82
2023-04-22T09:38:54.695Z,18.91
2023-04-22T09:41:39.277Z,18.87
2023-04-22T09:44:11.101Z,18.87
2023-04-22T09:46:37.834Z,18.83
2023-04-22T09:49:04.383Z,18.70
2023-04-22T09:51:32.007Z,18.60
2023-04-22T09:56:52.253Z,18.85
2023-04-22T09:59:24.031Z,18.80
2023-04-22T10:01:53.870Z,18.85
2023-04-22T10:04:23.356Z,18.92
2023-04-22T10:06:50.116Z,18.73
2023-04-22T10:09:20.118Z,18.43
2023-04-22T10:11:48.070Z,18.05
2023-04-22T10:14:14.840Z,17.77
2023-04-22T10:16:45.320Z,17.61
2023-04-22T10:19:16.969Z,17.64
2023-04-22T10:21:45.892Z,17.81
2023-04-22T10:24:18.065Z,17.90
2023-04-22T10:29:21.791Z,18.18
2023-04-22T10:34:32.642Z,18.50
2023-04-22T10:39:38.571Z,18.66
2023-04-22T10:42:11.815Z,18.73
2023-04-22T10:47:38.975Z,18.84
2023-04-22T10:52:52.859Z,18.96
2023-04-22T10:55:19.656Z,18.95
2023-04-22T10:57:47.975Z,18.97
2023-04-22T11:00:22.628Z,18.84
2023-04-22T11:03:12.570Z,18.83
2023-04-22T11:05:40.092Z,19.05
2023-04-22T11:10:50.868Z,19.33
2023-04-22T11:13:21.287Z,19.36
2023-04-22T11:15:51.803Z,19.19
2023-04-22T11:18:22.561Z,19.13
2023-04-22T11:20:50.803Z,19.14
2023-04-22T11:23:19.761Z,19.14
2023-04-22T11:25:46.629Z,19.13
2023-04-22T11:28:13.599Z,19.11
2023-04-22T11:30:40.282Z,19.14
2023-04-22T11:33:06.918Z,19.06
2023-04-22T11:35:35.196Z,19.10
2023-04-22T11:38:04.201Z,19.15
2023-04-22T11:43:08.985Z,19.02
2023-04-22T11:45:36.822Z,19.00
2023-04-22T11:48:05.946Z,18.94
2023-04-22T11:50:35.364Z,18.83
2023-04-22T11:53:04.123Z,18.78
2023-04-22T11:55:34.782Z,18.75
2023-04-22T11:58:11.642Z,18.78
2023-04-22T12:00:43.736Z,18.80
2023-04-22T12:03:21.176Z,18.75
2023-04-22T12:05:52.929Z,18.81
2023-04-22T12:10:59.055Z,18.74
2023-04-22T12:13:28.890Z,18.78
2023-04-22T12:15:57.727Z,18.79
2023-04-22T12:18:48.245Z,18.75
2023-04-22T12:21:16.799Z,18.81
2023-04-22T12:23:45.916Z,18.84
2023-04-22T12:26:13.634Z,18.85
2023-04-22T12:28:41.156Z,18.83
2023-04-22T12:31:09.143Z,18.87
2023-04-22T12:33:37.071Z,18.80
2023-04-22T12:36:04.711Z,18.74
2023-04-22T12:38:31.437Z,18.79
2023-04-22T12:40:58.723Z,18.72
2023-04-22T12:43:26.065Z,18.73
2023-04-22T12:45:52.839Z,18.77
2023-04-22T12:48:19.458Z,18.74
2023-04-22T12:50:46.393Z,18.72
2023-04-22T12:53:13.051Z,18.67
2023-04-22T12:55:39.872Z,18.60
2023-04-22T12:58:06.496Z,18.51
2023-04-22T13:00:33.399Z,18.44
2023-04-22T13:03:00.603Z,18.39
2023-04-22T13:05:27.429Z,18.30
2023-04-22T13:08:05.915Z,18.29
2023-04-22T13:10:33.853Z,18.26
2023-04-22T13:13:16.179Z,18.22
2023-04-22T13:15:54.128Z,18.02
2023-04-22T13:18:22.553Z,18.20
2023-04-22T13:20:49.250Z,18.10
2023-04-22T13:23:17.167Z,18.08
2023-04-22T13:25:44.111Z,18.07
2023-04-22T13:28:11.563Z,18.13
2023-04-22T13:30:38.637Z,18.20
2023-04-22T13:33:05.394Z,18.23
2023-04-22T13:35:31.988Z,18.29
2023-04-22T13:37:59.137Z,18.33
2023-04-22T13:40:27.499Z,18.41
2023-04-22T13:42:54.657Z,18.55
2023-04-22T13:45:21.420Z,18.58
2023-04-22T13:47:48.072Z,18.61
2023-04-22T13:50:14.669Z,18.50
2023-04-22T13:52:41.498Z,18.52
2023-04-22T13:55:08.821Z,18.53
2023-04-22T13:57:35.502Z,18.44
2023-04-22T14:00:02.224Z,18.37
2023-04-22T14:02:28.918Z,18.39
2023-04-22T14:04:55.580Z,18.45
2023-04-22T14:07:22.277Z,18.57
2023-04-22T14:09:48.851Z,18.54
2023-04-22T14:12:15.453Z,18.44
2023-04-22T14:14:42.313Z,18.41
2023-04-22T14:17:09.064Z,18.32
2023-04-22T14:19:39.626Z,18.30
2023-04-22T14:22:06.774Z,18.32
2023-04-22T14:24:33.415Z,18.35
2023-04-22T14:27:01.826Z,18.27
2023-04-22T14:29:29.891Z,18.26
2023-04-22T14:31:57.740Z,18.27
2023-04-22T14:34:24.527Z,18.29
2023-04-22T14:36:51.117Z,18.36
2023-04-22T14:39:17.655Z,18.42
2023-04-22T14:41:44.339Z,18.42
2023-04-22T14:44:10.945Z,18.44
2023-04-22T14:46:37.605Z,18.50
2023-04-22T14:49:04.308Z,18.59
2023-04-22T14:51:31.688Z,18.61
2023-04-22T14:53:58.307Z,18.46
2023-04-22T14:56:25.322Z,18.39
2023-04-22T14:58:51.857Z,18.22
2023-04-22T15:01:18.803Z,18.10
2023-04-22T15:03:45.545Z,18.01
2023-04-22T15:06:12.215Z,17.94
2023-04-22T15:08:40.032Z,17.91
2023-04-22T15:11:06.883Z,17.81
2023-04-22T15:13:33.472Z,17.73
2023-04-22T15:16:00.157Z,17.62
2023-04-22T15:18:26.899Z,17.56
2023-04-22T15:20:53.422Z,17.56
2023-04-22T15:23:19.975Z,17.57
2023-04-22T15:25:46.544Z,17.52
2023-04-22T15:28:13.858Z,17.55
2023-04-22T15:30:40.791Z,17.64
2023-04-22T15:33:07.416Z,17.69
2023-04-22T15:35:33.989Z,17.67
2023-04-22T15:38:01.476Z,17.63
2023-04-22T15:40:28.034Z,17.58
2023-04-22T15:42:54.592Z,17.59
2023-04-22T15:45:21.447Z,17.64
2023-04-22T15:47:48.102Z,17.63
2023-04-22T15:50:15.445Z,17.58
2023-04-22T15:52:42.074Z,17.53
2023-04-22T15:55:09.419Z,17.45
2023-04-22T15:57:36.202Z,17.29
2023-04-22T16:00:13.509Z,17.13
2023-04-22T16:02:42.151Z,17.08
2023-04-22T16:05:09.341Z,17.08
2023-04-22T16:07:35.948Z,17.17
2023-04-22T16:10:02.892Z,17.30
2023-04-22T16:12:30.160Z,17.36
2023-04-22T16:14:57.942Z,17.36
2023-04-22T16:17:24.826Z,17.25
2023-04-22T16:19:51.697Z,17.11
2023-04-22T16:22:18.270Z,16.98
2023-04-22T16:24:44.912Z,16.88
2023-04-22T16:27:16.450Z,16.83
2023-04-22T16:29:43.803Z,16.80
2023-04-22T16:32:11.018Z,16.82
2023-04-22T16:34:38.395Z,16.73
2023-04-22T16:37:05.524Z,16.53
2023-04-22T16:39:32.382Z,16.35
2023-04-22T16:41:59.084Z,16.16
2023-04-22T16:44:25.814Z,15.96
2023-04-22T16:46:52.350Z,15.77
2023-04-22T16:49:18.971Z,15.76
2023-04-22T16:51:45.794Z,15.76
2023-04-22T16:54:12.352Z,15.72
2023-04-22T16:56:38.891Z,15.61
2023-04-22T16:59:05.524Z,15.50
2023-04-22T17:01:32.148Z,15.29
2023-04-22T17:03:58.920Z,15.27
2023-04-22T17:06:27.478Z,15.18
2023-04-22T17:08:54.202Z,15.04
2023-04-22T17:11:20.828Z,14.97
2023-04-22T17:13:47.378Z,14.88
2023-04-22T17:16:13.975Z,14.83
2023-04-22T17:18:40.582Z,14.76
2023-04-22T17:21:07.158Z,14.70
2023-04-22T17:23:33.841Z,14.64
2023-04-22T17:26:00.437Z,14.59
2023-04-22T17:28:27.155Z,14.55
2023-04-22T17:30:53.776Z,14.48
2023-04-22T17:33:20.347Z,14.38
2023-04-22T17:35:46.869Z,14.27
2023-04-22T17:38:14.180Z,14.19
2023-04-22T17:40:40.983Z,14.07
2023-04-22T17:43:07.534Z,13.96
2023-04-22T17:45:34.052Z,13.83
2023-04-22T17:48:00.789Z,13.79
2023-04-22T17:50:27.538Z,13.77
2023-04-22T17:52:54.518Z,13.72
2023-04-22T17:55:21.203Z,13.64
2023-04-22T17:57:47.760Z,13.56
2023-04-22T18:00:14.869Z,13.53
2023-04-22T18:02:42.240Z,13.48
2023-04-22T18:05:09.483Z,13.39
2023-04-22T18:07:36.247Z,13.30
2023-04-22T18:10:02.837Z,13.26
2023-04-22T18:12:30.829Z,13.21
2023-04-22T18:14:58.019Z,13.13
2023-04-22T18:17:25.062Z,13.04
2023-04-22T18:19:54.418Z,13.01
2023-04-22T18:22:25.742Z,12.92
2023-04-22T18:24:52.902Z,12.84
2023-04-22T18:27:19.531Z,12.82
2023-04-22T18:29:47.968Z,12.75
2023-04-22T18:32:16.729Z,12.71
2023-04-22T18:34:43.647Z,12.57
2023-04-22T18:37:10.664Z,12.56
2023-04-22T18:39:39.424Z,12.51
2023-04-22T18:42:06.292Z,12.45
2023-04-22T18:44:32.865Z,12.41
2023-04-22T18:46:59.490Z,12.34
2023-04-22T18:49:26.420Z,12.32
2023-04-22T18:51:52.954Z,12.27
2023-04-22T18:54:19.595Z,12.25
2023-04-22T18:56:46.213Z,12.21
2023-04-22T18:59:13.035Z,12.10
2023-04-22T19:01:39.635Z,12.11
2023-04-22T19:04:07.932Z,12.07
2023-04-22T19:06:34.634Z,12.04
2023-04-22T19:09:01.259Z,11.98
2023-04-22T19:11:27.853Z,12.00
2023-04-22T19:13:54.430Z,11.96
2023-04-22T19:16:21.837Z,11.94
2023-04-22T19:18:49.681Z,11.90
2023-04-22T19:21:16.317Z,11.89
2023-04-22T19:23:42.943Z,11.85
2023-04-22T19:26:09.693Z,11.79
2023-04-22T19:28:36.717Z,11.78
2023-04-22T19:31:04.953Z,11.76
2023-04-22T19:33:32.136Z,11.75
2023-04-22T19:35:58.657Z,11.75
2023-04-22T19:38:25.309Z,11.73
2023-04-22T19:40:51.924Z,11.70
2023-04-22T19:43:19.364Z,11.67
2023-04-22T19:45:47.004Z,11.64
2023-04-22T19:48:14.023Z,11.60
2023-04-22T19:50:43.260Z,11.59
2023-04-22T19:53:11.042Z,11.57
2023-04-22T19:55:38.257Z,11.56
2023-04-22T19:58:05.887Z,11.54
2023-04-22T20:00:33.027Z,11.52
2023-04-22T20:02:59.942Z,11.47
2023-04-22T20:05:27.471Z,11.42
2023-04-22T20:07:58.518Z,11.37
2023-04-22T20:10:26.484Z,11.33
2023-04-22T20:12:53.798Z,11.31
2023-04-22T20:15:20.752Z,11.26
2023-04-22T20:17:47.603Z,11.24
2023-04-22T20:20:17.555Z,11.21
2023-04-22T20:22:45.275Z,11.01
2023-04-22T20:25:14.510Z,11.12
2023-04-22T20:27:41.683Z,11.12
2023-04-22T20:30:11.387Z,11.10
2023-04-22T20:32:38.100Z,11.09
2023-04-22T20:35:06.694Z,11.08
2023-04-22T20:37:36.046Z,11.06
2023-04-22T20:40:05.668Z,11.04
2023-04-22T20:42:33.232Z,10.99
2023-04-22T20:44:59.775Z,10.98
2023-04-22T20:47:26.401Z,10.95
2023-04-22T20:49:52.990Z,10.97
2023-04-22T20:52:19.554Z,10.96
2023-04-22T20:54:46.442Z,10.98
2023-04-22T20:57:13.228Z,10.99
2023-04-22T20:59:39.751Z,11.01
2023-04-22T21:02:08.414Z,11.01
2023-04-22T21:04:35.140Z,11.02
2023-04-22T21:07:07.390Z,11.03
2023-04-22T21:09:34.627Z,11.02
2023-04-22T21:12:02.386Z,10.96
2023-04-22T21:14:29.147Z,10.94
2023-04-22T21:17:12.999Z,10.88
2023-04-22T21:19:46.761Z,10.87
2023-04-22T21:22:13.668Z,10.80
2023-04-22T21:24:40.970Z,10.76
2023-04-22T21:27:08.346Z,10.67
2023-04-22T21:29:35.310Z,10.57
2023-04-22T21:32:09.128Z,10.51
2023-04-22T21:34:36.847Z,10.45
2023-04-22T21:37:05.136Z,10.38
2023-04-22T21:39:31.806Z,10.38
2023-04-22T21:41:58.606Z,10.26
2023-04-22T21:44:25.570Z,10.27
2023-04-22T21:46:52.090Z,10.25
2023-04-22T21:49:20.487Z,10.19
2023-04-22T21:51:47.132Z,10.13
2023-04-22T21:54:13.745Z,10.13
2023-04-22T21:56:40.465Z,10.08
2023-04-22T21:59:07.009Z,10.05
2023-04-22T22:01:33.632Z,10.06
2023-04-22T22:04:00.401Z,10.02
2023-04-22T22:06:27.096Z,10.06
2023-04-22T22:08:54.699Z,10.00
2023-04-22T22:11:30.301Z,9.94
2023-04-22T22:13:58.275Z,9.94
2023-04-22T22:16:25.756Z,9.98
2023-04-22T22:18:52.678Z,9.90
2023-04-22T22:21:19.372Z,9.88
2023-04-22T22:23:45.954Z,9.75
2023-04-22T22:26:12.817Z,9.74
2023-04-22T22:28:39.627Z,9.79
2023-04-22T22:31:06.913Z,9.70
2023-04-22T22:33:33.550Z,9.70
2023-04-22T22:36:00.224Z,9.56
2023-04-22T22:38:26.942Z,9.60
2023-04-22T22:40:53.466Z,9.55
2023-04-22T22:43:20.038Z,9.44
2023-04-22T22:45:46.789Z,9.49
2023-04-22T22:48:13.440Z,9.38
2023-04-22T22:50:40.537Z,9.36
2023-04-22T22:53:07.129Z,9.36
2023-04-22T22:55:34.180Z,9.38
2023-04-22T22:58:00.961Z,9.35
2023-04-22T23:00:27.667Z,9.37
2023-04-22T23:02:54.736Z,9.36
2023-04-22T23:05:22.002Z,9.23
2023-04-22T23:07:48.784Z,9.25
2023-04-22T23:10:15.819Z,9.16
2023-04-22T23:12:42.960Z,9.12
2023-04-22T23:15:09.998Z,9.09
2023-04-22T23:17:36.885Z,9.13
2023-04-22T23:20:04.142Z,9.19
2023-04-22T23:22:32.224Z,9.07
2023-04-22T23:24:59.231Z,9.10
2023-04-22T23:27:26.101Z,9.12
2023-04-22T23:29:52.956Z,9.11
2023-04-22T23:32:20.606Z,9.12
2023-04-22T23:34:49.684Z,9.10
2023-04-22T23:37:18.930Z,9.06
2023-04-22T23:39:45.517Z,9.05
2023-04-22T23:42:12.050Z,9.02
2023-04-22T23:44:38.922Z,9.05
2023-04-22T23:47:05.918Z,9.06
2023-04-22T23:49:32.724Z,9.00
2023-04-22T23:51:59.587Z,8.96
2023-04-22T23:54:26.706Z,8.90
2023-04-22T23:56:53.821Z,8.95
2023-04-22T23:59:20.755Z,8.93
